createdAt,value
2018-05-12T00:01:15.085Z,4.97
2018-05-12T00:03:42.616Z,4.50
2018-05-12T00:06:10.837Z,5.70
2018-05-12T00:08:38.305Z,4.62
2018-05-12T00:11:05.786Z,5.32
2018-05-12T00:13:33.236Z,5.25
2018-05-12T00:16:00.765Z,5.72
2018-05-12T00:18:28.228Z,4.78
2018-05-12T00:20:55.690Z,5.25
2018-05-12T00:23:23.188Z,5.30
2018-05-12T00:25:50.653Z,4.75
2018-05-12T00:28:18.115Z,5.75
2018-05-12T00:30:45.588Z,5.00
2018-05-12T00:33:13.056Z,5.05
2018-05-12T00:35:40.514Z,5.25
2018-05-12T00:38:07.970Z,4.95
2018-05-12T00:40:35.481Z,5.10
2018-05-12T00:43:02.951Z,5.75
2018-05-12T00:45:30.410Z,6.40
2018-05-12T00:47:57.866Z,5.95
2018-05-12T00:50:25.330Z,5.95
2018-05-12T00:52:52.804Z,5.18
2018-05-12T00:55:20.298Z,5.37
2018-05-12T00:57:47.760Z,4.43
2018-05-12T01:00:15.218Z,4.50
2018-05-12T01:02:42.690Z,5.15
2018-05-12T01:05:10.162Z,5.55
2018-05-12T01:07:38.424Z,5.40
2018-05-12T01:10:06.664Z,7.25
2018-05-12T01:12:34.126Z,5.90
2018-05-12T01:15:01.583Z,5.70
2018-05-12T01:17:29.068Z,10.02
2018-05-12T01:19:56.525Z,4.95
2018-05-12T01:22:24.751Z,4.85
2018-05-12T01:24:52.256Z,5.18
2018-05-12T01:27:19.720Z,4.80
2018-05-12T01:29:47.175Z,5.75
2018-05-12T01:32:15.765Z,7.20
2018-05-12T01:34:43.228Z,4.80
2018-05-12T01:37:10.685Z,5.62
2018-05-12T01:39:38.229Z,5.30
2018-05-12T01:42:06.461Z,5.32
2018-05-12T01:44:33.932Z,4.68
2018-05-12T01:47:01.414Z,6.12
2018-05-12T01:49:28.865Z,5.22
2018-05-12T01:51:56.321Z,5.65
2018-05-12T01:54:23.809Z,6.20
2018-05-12T01:56:51.264Z,5.62
2018-05-12T01:59:18.720Z,5.30
2018-05-12T02:01:46.187Z,5.70
2018-05-12T02:04:13.665Z,5.97
2018-05-12T02:06:41.901Z,5.30
2018-05-12T02:09:09.346Z,5.30
2018-05-12T02:11:37.580Z,5.50
2018-05-12T02:14:05.058Z,4.78
2018-05-12T02:16:32.537Z,4.95
2018-05-12T02:19:00.774Z,5.53
2018-05-12T02:21:28.234Z,5.20
2018-05-12T02:23:55.694Z,5.57
2018-05-12T02:26:23.156Z,5.93
2018-05-12T02:28:50.642Z,5.72
2018-05-12T02:31:18.898Z,7.35
2018-05-12T02:33:46.420Z,6.57
2018-05-12T02:36:13.909Z,5.32
2018-05-12T02:38:41.391Z,7.32
2018-05-12T02:41:09.657Z,5.22
2018-05-12T02:43:37.134Z,5.20
2018-05-12T02:46:04.601Z,6.00
2018-05-12T02:48:32.061Z,5.97
2018-05-12T02:50:59.543Z,6.12
2018-05-12T02:53:27.006Z,6.68
2018-05-12T02:55:54.506Z,6.25
2018-05-12T02:58:21.982Z,6.40
2018-05-12T03:00:50.213Z,6.75
2018-05-12T03:03:17.692Z,6.93
2018-05-12T03:05:45.176Z,6.93
2018-05-12T03:08:12.630Z,9.25
2018-05-12T03:10:40.124Z,6.20
2018-05-12T03:13:07.582Z,9.27
2018-05-12T03:15:35.074Z,7.40
2018-05-12T03:18:03.304Z,7.03
2018-05-12T03:20:30.786Z,7.40
2018-05-12T03:22:58.240Z,5.93
2018-05-12T03:25:25.714Z,6.95
2018-05-12T03:27:53.180Z,7.85
2018-05-12T03:30:21.408Z,7.37
2018-05-12T03:32:48.913Z,8.00
2018-05-12T03:35:17.166Z,6.65
2018-05-12T03:37:44.634Z,7.40
2018-05-12T03:40:12.113Z,7.37
2018-05-12T03:42:39.630Z,7.05
2018-05-12T03:45:07.122Z,8.70
2018-05-12T03:47:35.395Z,7.68
2018-05-12T03:50:02.853Z,8.15
2018-05-12T03:52:30.324Z,8.52
2018-05-12T03:54:57.786Z,10.65
2018-05-12T03:57:25.277Z,9.30
2018-05-12T03:59:52.751Z,9.60
2018-05-12T04:02:20.258Z,9.82
2018-05-12T04:04:59.496Z,8.15
2018-05-12T04:07:38.690Z,10.07
2018-05-12T04:10:17.793Z,8.45
2018-05-12T04:12:45.346Z,9.18
2018-05-12T04:15:13.088Z,10.48
2018-05-12T04:17:40.569Z,14.38
2018-05-12T04:20:08.109Z,10.13
2018-05-12T04:22:35.590Z,9.98
2018-05-12T04:25:03.143Z,9.98
2018-05-12T04:27:30.704Z,9.95
2018-05-12T04:29:58.213Z,9.80
2018-05-12T04:32:26.484Z,9.75
2018-05-12T04:34:54.761Z,10.77
2018-05-12T04:37:22.336Z,10.48
2018-05-12T04:39:49.874Z,10.77
2018-05-12T04:42:17.381Z,10.55
2018-05-12T04:44:44.840Z,10.75
2018-05-12T04:47:12.357Z,12.77
2018-05-12T04:49:39.860Z,10.80
2018-05-12T04:52:07.476Z,12.60
2018-05-12T04:54:34.989Z,11.40
2018-05-12T04:57:02.466Z,11.02
2018-05-12T04:59:29.937Z,12.32
2018-05-12T05:01:57.435Z,11.98
2018-05-12T05:04:24.971Z,11.32
2018-05-12T05:06:52.467Z,11.30
2018-05-12T05:09:19.972Z,11.88
2018-05-12T05:11:48.209Z,13.00
2018-05-12T05:14:15.839Z,12.80
2018-05-12T05:16:43.380Z,12.37
2018-05-12T05:19:10.877Z,14.18
2018-05-12T05:21:38.366Z,19.08
2018-05-12T05:24:05.853Z,13.65
2018-05-12T05:26:34.125Z,12.88
2018-05-12T05:29:02.398Z,15.25
2018-05-12T05:31:29.927Z,13.62
2018-05-12T05:33:57.421Z,12.35
2018-05-12T05:36:24.889Z,15.02
2018-05-12T05:38:52.376Z,13.65
2018-05-12T05:41:19.854Z,13.35
2018-05-12T05:43:47.353Z,14.02
2018-05-12T05:46:14.868Z,13.48
2018-05-12T05:48:42.416Z,15.27
2018-05-12T05:51:09.921Z,16.15
2018-05-12T05:53:37.436Z,15.18
2018-05-12T05:56:04.950Z,17.48
2018-05-12T05:58:32.526Z,15.80
2018-05-12T06:01:00.018Z,15.95
2018-05-12T06:03:27.515Z,15.50
2018-05-12T06:05:55.013Z,16.58
2018-05-12T06:08:22.485Z,14.85
2018-05-12T06:10:49.980Z,17.52
2018-05-12T06:13:17.524Z,15.55
2018-05-12T06:15:45.024Z,16.42
2018-05-12T06:18:12.587Z,16.67
2018-05-12T06:20:40.026Z,14.80
2018-05-12T06:23:07.564Z,16.70
2018-05-12T06:25:35.090Z,15.30
2018-05-12T06:28:04.955Z,14.60
2018-05-12T06:30:35.815Z,13.30
2018-05-12T06:33:19.147Z,14.63
2018-05-12T06:35:53.066Z,15.57
2018-05-12T08:47:41.639Z,8.07
2018-05-12T08:50:09.530Z,7.30
2018-05-12T08:52:37.015Z,8.00
2018-05-12T08:55:05.296Z,6.80
2018-05-12T08:57:33.591Z,7.10
2018-05-12T09:02:35.548Z,7.63
2018-05-12T09:05:03.049Z,9.93
2018-05-12T09:07:30.535Z,9.70
2018-05-12T09:09:58.015Z,8.90
2018-05-12T09:12:25.497Z,7.60
2018-05-12T09:14:54.010Z,7.10
2018-05-12T09:17:21.462Z,7.17
2018-05-12T09:22:39.475Z,7.37
2018-05-12T09:25:06.955Z,7.23
2018-05-12T09:27:34.419Z,7.60
2018-05-12T09:30:01.908Z,6.53
2018-05-12T09:32:29.371Z,6.40
2018-05-12T09:34:57.656Z,10.27
2018-05-12T09:37:25.133Z,7.97
2018-05-12T09:39:52.639Z,7.67
2018-05-12T09:45:11.842Z,7.37
2018-05-12T09:47:39.311Z,8.60
2018-05-12T09:50:06.881Z,8.43
2018-05-12T09:52:44.871Z,16.73
2018-05-12T09:55:12.340Z,7.83
2018-05-12T09:57:39.811Z,7.30
2018-05-12T10:00:07.483Z,8.60
2018-05-12T10:02:43.901Z,7.00
2018-05-12T10:05:11.605Z,6.47
2018-05-12T10:07:44.561Z,6.87
2018-05-12T10:10:12.071Z,6.80
2018-05-12T10:12:39.676Z,7.10
2018-05-12T10:15:07.154Z,6.47
2018-05-12T10:17:34.636Z,6.63
2018-05-12T10:20:02.137Z,7.73
2018-05-12T10:22:31.129Z,6.10
2018-05-12T10:24:58.967Z,8.00
2018-05-12T10:27:26.433Z,6.30
2018-05-12T10:29:54.499Z,6.87
2018-05-12T10:32:41.867Z,6.77
2018-05-12T10:35:10.254Z,6.50
2018-05-12T10:37:39.712Z,6.50
2018-05-12T10:40:07.500Z,7.10
2018-05-12T10:42:35.029Z,6.23
2018-05-12T10:45:02.531Z,5.70
2018-05-12T10:47:30.079Z,6.77
2018-05-12T10:49:57.558Z,5.57
2018-05-12T10:52:25.060Z,8.97
2018-05-12T10:54:52.591Z,6.63
2018-05-12T10:57:20.884Z,6.07
2018-05-12T10:59:48.340Z,6.40
2018-05-12T11:02:15.825Z,8.13
2018-05-12T11:04:43.414Z,6.43
2018-05-12T11:07:10.886Z,5.63
2018-05-12T11:09:38.525Z,7.77
2018-05-12T11:12:05.905Z,6.83
2018-05-12T11:14:33.393Z,6.83
2018-05-12T11:17:01.693Z,7.57
2018-05-12T11:19:29.163Z,10.73
2018-05-12T11:21:56.692Z,7.70
2018-05-12T11:24:24.150Z,6.93
2018-05-12T11:26:51.616Z,7.00
2018-05-12T11:29:19.087Z,7.13
2018-05-12T11:31:46.557Z,7.77
2018-05-12T11:34:14.067Z,6.80
2018-05-12T11:36:42.323Z,6.50
2018-05-12T11:39:09.804Z,5.80
2018-05-12T11:41:38.037Z,7.30
2018-05-12T11:44:05.540Z,7.73
2018-05-12T11:46:33.777Z,5.23
2018-05-12T11:49:01.229Z,7.63
2018-05-12T11:51:28.750Z,6.43
2018-05-12T11:53:56.242Z,8.37
2018-05-12T11:56:23.747Z,6.00
2018-05-12T11:58:51.196Z,6.80
2018-05-12T12:01:18.714Z,7.70
2018-05-12T12:03:46.209Z,5.27
2018-05-12T12:06:13.744Z,5.30
2018-05-12T12:08:41.196Z,4.57
2018-05-12T12:11:08.673Z,6.73
2018-05-12T12:13:36.922Z,5.70
2018-05-12T12:16:04.397Z,5.80
2018-05-12T12:18:31.860Z,5.40
2018-05-12T12:20:59.329Z,5.03
2018-05-12T12:23:26.818Z,5.63
2018-05-12T12:25:54.288Z,5.10
2018-05-12T12:28:21.772Z,4.63
2018-05-12T12:30:49.244Z,5.23
2018-05-12T12:33:16.829Z,4.80
2018-05-12T12:35:44.225Z,6.33
2018-05-12T12:38:11.800Z,4.80
2018-05-12T12:40:39.533Z,4.77
2018-05-12T12:43:06.993Z,4.80
2018-05-12T12:45:34.474Z,4.30
2018-05-12T12:48:01.957Z,5.40
2018-05-12T12:50:30.171Z,4.33
2018-05-12T12:52:57.634Z,6.87
2018-05-12T12:55:25.092Z,5.50
2018-05-12T12:57:52.664Z,4.67
2018-05-12T13:00:20.591Z,4.77
2018-05-12T13:02:48.131Z,3.73
2018-05-12T13:05:15.703Z,7.93
2018-05-12T13:07:43.211Z,3.40
2018-05-12T13:10:10.697Z,4.77
2018-05-12T13:12:38.173Z,5.23
2018-05-12T13:15:06.407Z,4.50
2018-05-12T13:17:34.149Z,4.00
2018-05-12T13:20:01.623Z,4.13
2018-05-12T13:22:29.233Z,4.13
2018-05-12T13:24:57.484Z,4.03
2018-05-12T13:27:24.949Z,4.47
2018-05-12T13:29:53.196Z,3.97
2018-05-12T13:32:20.690Z,4.07
2018-05-12T13:34:48.981Z,4.83
2018-05-12T13:37:16.450Z,4.50
2018-05-12T13:39:43.911Z,4.97
2018-05-12T13:42:11.400Z,3.77
2018-05-12T13:44:38.907Z,3.83
2018-05-12T13:47:06.359Z,4.17
2018-05-12T13:49:34.598Z,4.30
2018-05-12T13:52:02.108Z,3.47
2018-05-12T13:54:29.560Z,4.03
2018-05-12T13:56:57.048Z,3.20
2018-05-12T13:59:24.476Z,4.13
2018-05-12T14:01:52.005Z,6.13
2018-05-12T14:04:19.548Z,5.10
2018-05-12T14:06:47.839Z,4.33
2018-05-12T14:09:15.325Z,3.97
2018-05-12T14:11:42.814Z,3.93
2018-05-12T14:14:10.297Z,3.73
2018-05-12T14:16:37.755Z,3.20
2018-05-12T14:19:05.449Z,3.70
2018-05-12T14:21:32.827Z,6.97
2018-05-12T14:24:00.276Z,3.63
2018-05-12T14:26:27.788Z,5.30
2018-05-12T14:28:55.288Z,3.77
2018-05-12T14:31:22.748Z,3.43
2018-05-12T14:33:50.205Z,4.63
2018-05-12T14:36:17.660Z,4.97
2018-05-12T14:38:45.176Z,4.30
2018-05-12T14:41:12.657Z,4.17
2018-05-12T14:43:40.880Z,5.80
2018-05-12T14:46:08.357Z,4.17
2018-05-12T14:48:35.848Z,4.30
2018-05-12T14:51:03.340Z,4.37
2018-05-12T14:53:30.818Z,4.70
2018-05-12T14:55:58.294Z,4.27
2018-05-12T14:58:25.789Z,4.13
2018-05-12T15:00:53.275Z,4.67
2018-05-12T15:03:20.741Z,8.53
2018-05-12T15:05:48.235Z,5.10
2018-05-12T15:08:15.774Z,4.20
2018-05-12T15:10:43.967Z,4.10
2018-05-12T15:13:11.422Z,4.97
2018-05-12T15:15:38.882Z,3.53
2018-05-12T15:18:06.339Z,4.17
2018-05-12T15:20:34.597Z,4.70
2018-05-12T15:23:02.078Z,4.20
2018-05-12T15:25:29.554Z,3.90
2018-05-12T15:27:57.043Z,4.20
2018-05-12T15:30:24.521Z,4.40
2018-05-12T15:32:51.976Z,4.10
2018-05-12T15:35:19.431Z,3.87
2018-05-12T15:37:47.467Z,4.47
2018-05-12T15:43:05.788Z,3.80
2018-05-12T15:45:33.240Z,4.50
2018-05-12T15:48:00.704Z,4.93
2018-05-12T15:50:28.161Z,3.93
2018-05-12T15:52:55.625Z,4.27
2018-05-12T15:55:23.861Z,4.63
2018-05-12T15:57:51.329Z,4.43
2018-05-12T16:00:18.786Z,6.90
2018-05-12T16:02:46.269Z,3.90
2018-05-12T16:05:14.507Z,4.10
2018-05-12T16:07:41.987Z,4.60
2018-05-12T16:10:09.516Z,4.03
2018-05-12T16:12:36.977Z,4.70
2018-05-12T16:15:04.446Z,4.17
2018-05-12T16:17:31.952Z,4.07
2018-05-12T16:19:59.437Z,4.63
2018-05-12T16:22:26.918Z,3.90
2018-05-12T16:24:54.385Z,4.87
2018-05-12T16:27:21.860Z,4.60
2018-05-12T16:29:49.370Z,3.97
2018-05-12T16:32:16.836Z,4.60
2018-05-12T16:34:44.314Z,6.83
2018-05-12T16:37:11.760Z,6.77
2018-05-12T16:39:39.244Z,7.43
2018-05-12T16:42:07.498Z,7.90
2018-05-12T16:44:34.974Z,8.70
2018-05-12T16:47:02.406Z,8.07
2018-05-12T16:49:29.946Z,9.57
2018-05-12T16:51:57.434Z,10.37
2018-05-12T16:54:24.906Z,11.10
2018-05-12T16:56:53.168Z,9.37
2018-05-12T16:59:20.632Z,9.60
2018-05-12T17:01:48.116Z,8.03
2018-05-12T17:04:15.576Z,6.83
2018-05-12T17:06:43.807Z,9.33
2018-05-12T17:09:11.257Z,8.17
2018-05-12T17:11:38.752Z,7.70
2018-05-12T17:14:07.005Z,8.97
2018-05-12T17:16:34.473Z,7.23
2018-05-12T17:19:01.931Z,6.83
2018-05-12T17:21:30.184Z,9.30
2018-05-12T17:23:57.780Z,9.47
2018-05-12T17:26:25.989Z,9.33
2018-05-12T17:28:53.678Z,8.23
2018-05-12T17:31:21.157Z,8.40
2018-05-12T17:33:48.623Z,8.30
2018-05-12T17:36:16.851Z,9.33
2018-05-12T17:38:44.317Z,9.93
2018-05-12T17:41:11.793Z,10.00
2018-05-12T17:43:39.264Z,9.47
2018-05-12T17:46:06.753Z,15.40
2018-05-12T17:48:34.205Z,9.43
2018-05-12T17:51:01.665Z,10.57
2018-05-12T17:53:29.156Z,9.63
2018-05-12T17:55:56.625Z,10.23
2018-05-12T17:58:24.087Z,10.53
2018-05-12T18:00:51.568Z,9.87
2018-05-12T18:03:19.794Z,10.30
2018-05-12T18:05:47.261Z,9.80
2018-05-12T18:08:14.716Z,10.03
2018-05-12T18:10:42.189Z,12.87
2018-05-12T18:13:09.668Z,9.80
2018-05-12T18:15:37.904Z,12.30
2018-05-12T18:18:05.374Z,10.10
2018-05-12T18:20:32.832Z,9.23
2018-05-12T18:23:00.290Z,8.63
2018-05-12T18:25:28.052Z,10.15
2018-05-12T18:27:55.732Z,10.93
2018-05-12T18:30:23.212Z,9.33
2018-05-12T18:32:50.684Z,11.17
2018-05-12T18:35:18.130Z,9.23
2018-05-12T18:37:45.592Z,9.27
2018-05-12T18:40:13.078Z,10.32
2018-05-12T18:42:40.575Z,9.80
2018-05-12T18:45:08.804Z,9.53
2018-05-12T18:47:36.297Z,12.10
2018-05-12T18:50:03.757Z,9.20
2018-05-12T18:52:31.224Z,10.43
2018-05-12T18:54:59.492Z,11.60
2018-05-12T18:57:26.989Z,12.43
2018-05-12T18:59:54.514Z,9.65
2018-05-12T19:02:22.773Z,9.52
2018-05-12T19:04:50.248Z,10.90
2018-05-12T19:07:17.726Z,11.12
2018-05-12T19:09:45.178Z,9.60
2018-05-12T19:12:12.644Z,9.50
2018-05-12T19:14:40.122Z,10.90
2018-05-12T19:17:07.614Z,9.40
2018-05-12T19:19:35.074Z,11.10
2018-05-12T19:22:02.533Z,9.57
2018-05-12T19:24:30.017Z,9.43
2018-05-12T19:26:58.280Z,9.52
2018-05-12T19:29:25.760Z,11.43
2018-05-12T19:31:53.221Z,14.00
2018-05-12T19:34:20.705Z,9.95
2018-05-12T19:36:48.168Z,10.15
2018-05-12T19:39:15.669Z,10.57
2018-05-12T19:41:43.909Z,11.32
2018-05-12T19:44:11.390Z,11.15
2018-05-12T19:46:38.862Z,12.20
2018-05-12T19:49:06.382Z,12.60
2018-05-12T19:51:33.863Z,11.48
2018-05-12T19:54:01.341Z,12.35
2018-05-12T19:56:28.817Z,12.70
2018-05-12T19:58:56.277Z,12.07
2018-05-12T20:01:23.735Z,9.35
2018-05-12T20:03:51.256Z,10.85
2018-05-12T20:06:18.728Z,13.20
2018-05-12T20:08:46.202Z,12.48
2018-05-12T20:11:13.695Z,11.57
2018-05-12T20:13:41.184Z,14.27
2018-05-12T20:16:08.646Z,12.10
2018-05-12T20:18:36.908Z,13.70
2018-05-12T20:21:04.436Z,12.27
2018-05-12T20:23:32.257Z,14.23
2018-05-12T20:25:59.872Z,13.82
2018-05-12T20:28:27.369Z,14.57
2018-05-12T20:30:55.646Z,14.00
2018-05-12T20:33:23.116Z,12.15
2018-05-12T20:35:50.673Z,13.62
2018-05-12T20:38:18.186Z,12.45
2018-05-12T20:40:45.690Z,14.65
2018-05-12T20:43:13.933Z,14.45
2018-05-12T20:45:41.454Z,15.60
2018-05-12T20:48:08.967Z,13.40
2018-05-12T20:50:37.224Z,13.57
2018-05-12T20:53:04.716Z,12.30
2018-05-12T20:55:32.184Z,12.45
2018-05-12T20:57:59.681Z,14.55
2018-05-12T21:00:27.264Z,14.73
2018-05-12T21:02:54.750Z,14.30
2018-05-12T21:05:22.241Z,15.25
2018-05-12T21:07:49.716Z,14.80
2018-05-12T21:10:17.192Z,18.27
2018-05-12T21:12:44.680Z,14.45
2018-05-12T21:15:12.172Z,17.02
2018-05-12T21:17:39.653Z,17.62
2018-05-12T21:20:07.128Z,14.93
2018-05-12T21:22:35.417Z,14.10
2018-05-12T21:25:02.887Z,15.30
2018-05-12T21:27:30.364Z,16.80
2018-05-12T21:29:57.927Z,17.10
2018-05-12T21:32:25.476Z,17.77
2018-05-12T21:34:52.935Z,16.27
2018-05-12T21:37:20.413Z,16.92
2018-05-12T21:39:47.881Z,18.55
2018-05-12T21:42:15.360Z,16.30
2018-05-12T21:44:42.995Z,16.90
2018-05-12T21:47:10.461Z,15.77
2018-05-12T21:49:37.928Z,17.42
2018-05-12T21:52:05.400Z,19.62
2018-05-12T21:54:33.630Z,15.55
2018-05-12T21:57:01.123Z,16.98
2018-05-12T21:59:28.590Z,17.33
2018-05-12T22:01:56.053Z,17.27
2018-05-12T22:04:23.558Z,16.00
2018-05-12T22:06:51.034Z,18.02
2018-05-12T22:09:18.516Z,16.67
2018-05-12T22:11:45.985Z,16.92
2018-05-12T22:14:13.481Z,18.15
2018-05-12T22:16:40.943Z,20.52
2018-05-12T22:19:08.405Z,17.52
2018-05-12T22:21:35.912Z,17.98
2018-05-12T22:24:04.161Z,17.40
2018-05-12T22:26:31.642Z,17.52
2018-05-12T22:28:59.889Z,19.90
2018-05-12T22:31:27.367Z,18.35
2018-05-12T22:33:54.844Z,19.23
2018-05-12T22:36:22.316Z,17.00
2018-05-12T22:38:49.810Z,18.65
2018-05-12T22:41:17.277Z,20.02
2018-05-12T22:43:44.758Z,20.60
2018-05-12T22:46:12.231Z,20.30
2018-05-12T22:48:39.696Z,20.40
2018-05-12T22:51:07.176Z,21.35
2018-05-12T22:53:34.663Z,20.98
2018-05-12T22:56:02.134Z,20.83
2018-05-12T22:58:29.605Z,20.48
2018-05-12T23:00:57.833Z,19.75
2018-05-12T23:03:25.312Z,21.42
2018-05-12T23:05:52.852Z,21.02
2018-05-12T23:08:20.338Z,22.92
2018-05-12T23:10:47.797Z,21.12
2018-05-12T23:13:15.270Z,23.70
2018-05-12T23:15:43.501Z,23.55
2018-05-12T23:18:17.416Z,24.00
2018-05-12T23:20:44.899Z,22.92
2018-05-12T23:23:12.352Z,22.67
2018-05-12T23:25:39.820Z,21.65
2018-05-12T23:28:07.293Z,21.37
2018-05-12T23:30:34.749Z,22.85
2018-05-12T23:33:02.208Z,23.95
2018-05-12T23:35:29.660Z,27.52
2018-05-12T23:37:57.148Z,23.98
2018-05-12T23:40:24.629Z,21.27
2018-05-12T23:42:52.112Z,25.02
2018-05-12T23:45:19.585Z,22.62
2018-05-12T23:47:47.048Z,23.83
2018-05-12T23:50:14.516Z,26.12
2018-05-12T23:52:42.025Z,24.75
2018-05-12T23:55:09.528Z,25.48
2018-05-12T23:57:37.012Z,25.55
